Ermita Pilar — EA3320 — position and weather

sailwx.info

Track history (hours):
 
Tides and Currents Weather Stations Pressure Air Temp Water Temp Dewpoint Dewpoint Depression Visibility Wind Speed Wind Dir Waves Ship Positions

Ermita Pilar

Last reported at 2017-Nov-17 11:44 UTC. Time now 2017-Nov-21 15:29 UTC.
Position N 43°19' W 001°56'.

Length 30 m.

Type: Fishing. MMSI: 224028250.

Date/timePositionNaut miles runAvg speedWind from/ knotsBaromVisibWave heightAir tempDewpointWater temp
2017-Nov-17 11:44N 43°19' W 001°56'1 0.5
2017-Nov-17 10:14N 43°20' W 001°56'910.7
2017-Nov-17 09:25N 43°28' W 001°52'410.7
2017-Nov-17 09:00N 43°33' W 001°50'510.6
2017-Nov-17 08:30N 43°38' W 001°48'510.6
2017-Nov-17 08:00N 43°43' W 001°45'510.8
2017-Nov-17 07:30N 43°48' W 001°43'510.6
2017-Nov-17 07:00N 43°53' W 001°40'510.4
2017-Nov-17 06:30N 43°57' W 001°37'510.6
2017-Nov-17 06:00N 44°02' W 001°34'611.1
2017-Nov-17 05:30N 44°07' W 001°31'611.1
2017-Nov-17 05:00N 44°13' W 001°28'1 2.3
2017-Nov-17 04:30N 44°14' W 001°28'0 0.2
2017-Nov-17 04:00N 44°14' W 001°28'2 3.1
2017-Nov-17 03:30N 44°12' W 001°28'510.3
2017-Nov-17 03:00N 44°08' W 001°31'611.2
2017-Nov-17 02:30N 44°02' W 001°33'1 1.4
2017-Nov-17 02:00N 44°02' W 001°33'1 1.8
2017-Nov-17 01:30N 44°01' W 001°33'0 0.3
2017-Nov-17 01:00N 44°01' W 001°33'0 1.0
2017-Nov-17 00:30N 44°00' W 001°33'0 0.2
2017-Nov-17 00:00N 44°00' W 001°33'0 0.3
2017-Nov-16 23:30N 44°00' W 001°33'2 3.5
2017-Nov-16 23:00N 44°01' W 001°36'1 2.0
2017-Nov-16 22:30N 43°60' W 001°36'0 0.1
2017-Nov-16 21:50N 43°60' W 001°36'1 1.0
2017-Nov-16 20:30N 44°01' W 001°37'1 1.1
2017-Nov-16 19:50N 44°00' W 001°37'0 0.3
2017-Nov-16 19:30N 43°60' W 001°37'0 0.6
2017-Nov-16 18:58N 43°60' W 001°37'3 7.2
2017-Nov-16 18:30N 44°03' W 001°34'2 3.1
2017-Nov-16 17:57N 44°04' W 001°34'3 6.5
2017-Nov-16 17:30N 44°01' W 001°33'5 9.7
2017-Nov-16 17:00N 43°57' W 001°35'5 9.7
2017-Nov-16 16:30N 43°52' W 001°37'5 9.9
2017-Nov-16 16:00N 43°48' W 001°40'5 9.8
2017-Nov-16 15:30N 43°43' W 001°43'5 9.9
2017-Nov-16 15:00N 43°39' W 001°46'5 9.6
2017-Nov-16 14:30N 43°34' W 001°48'5 9.8
2017-Nov-16 14:00N 43°30' W 001°51'5 9.6
2017-Nov-16 13:30N 43°25' W 001°53'5 9.4
2017-Nov-16 13:00N 43°21' W 001°55'1 0.2
2017-Nov-16 08:50N 43°20' W 001°56'410.3
2017-Nov-16 08:25N 43°24' W 001°55'510.4
2017-Nov-16 07:57N 43°29' W 001°54'510.5
2017-Nov-16 07:30N 43°34' W 001°52'510.4
2017-Nov-16 07:00N 43°39' W 001°50'510.4
2017-Nov-16 06:30N 43°43' W 001°47'510.5
2017-Nov-16 06:00N 43°48' W 001°45'510.3
2017-Nov-16 05:30N 43°53' W 001°42'510.2
2017-Nov-16 05:00N 43°58' W 001°40'510.0
2017-Nov-16 04:30N 44°03' W 001°37'4 8.1
2017-Nov-16 04:00N 44°06' W 001°35'2 3.9
2017-Nov-16 03:30N 44°08' W 001°34'0 0.1
2017-Nov-16 03:00N 44°08' W 001°34'0 0.2
2017-Nov-16 02:30N 44°08' W 001°33'2 4.6
2017-Nov-16 02:00N 44°06' W 001°34'1 1.0
2017-Nov-16 01:08N 44°06' W 001°33'0 0.2
2017-Nov-16 01:00N 44°06' W 001°33'0 0.3
2017-Nov-16 00:30N 44°06' W 001°33'0 0.1
2017-Nov-16 00:00N 44°06' W 001°33'0 0.1
2017-Nov-15 23:30N 44°06' W 001°33'1 0.6
2017-Nov-15 21:54N 44°06' W 001°31'2 6.2
2017-Nov-15 21:30N 44°08' W 001°31'0 0.2
2017-Nov-15 20:26N 44°09' W 001°32'0 0.3
2017-Nov-15 20:00N 44°09' W 001°32'0 0.3
2017-Nov-15 19:30N 44°09' W 001°32'4 3.6
2017-Nov-15 18:29N 44°05' W 001°29'1 3.0
2017-Nov-15 18:00N 44°05' W 001°31'0 0.2
2017-Nov-15 17:30N 44°05' W 001°30'1 2.5
2017-Nov-15 16:59N 44°04' W 001°31'5 9.5
2017-Nov-15 16:29N 43°60' W 001°34'5 9.8
2017-Nov-15 15:59N 43°55' W 001°37'510.0
2017-Nov-15 15:30N 43°51' W 001°40'510.2
2017-Nov-15 15:00N 43°46' W 001°43'510.1
2017-Nov-15 14:30N 43°41' W 001°45'5 9.7
2017-Nov-15 14:00N 43°37' W 001°47'5 9.8
2017-Nov-15 13:30N 43°32' W 001°50'6 9.8
2017-Nov-15 12:55N 43°27' W 001°53'4 9.7
2017-Nov-15 12:30N 43°23' W 001°55'3 1.2
2017-Nov-15 10:08N 43°20' W 001°56'1 9.9
2017-Nov-15 09:59N 43°22' W 001°56'910.2
2017-Nov-15 09:09N 43°30' W 001°53'110.1
2017-Nov-15 09:00N 43°31' W 001°52'510.1
2017-Nov-15 08:30N 43°36' W 001°50'510.2
2017-Nov-15 08:00N 43°41' W 001°48'510.0
2017-Nov-15 07:28N 43°46' W 001°46'10 9.9
2017-Nov-15 06:27N 43°56' W 001°42'22 6.0
2017-Nov-15 02:50N 44°16' W 001°31'0 0.2
2017-Nov-15 02:20N 44°16' W 001°31'0 0.2
2017-Nov-15 01:57N 44°16' W 001°31'0 0.1
2017-Nov-15 00:41N 44°16' W 001°31'0 0.3
2017-Nov-15 00:31N 44°16' W 001°31'1 1.1
2017-Nov-14 23:45N 44°17' W 001°31'0 0.1
2017-Nov-14 23:29N 44°17' W 001°31'1 1.2
2017-Nov-14 22:58N 44°17' W 001°30'31 3.8
2017-Nov-14 14:43N 44°02' W 002°08'2 9.8
2017-Nov-14 14:29N 44°01' W 002°11'5 9.7
2017-Nov-14 14:00N 43°58' W 002°16'5 9.6
2017-Nov-14 13:31N 43°56' W 002°22'5 9.6
2017-Nov-14 13:00N 43°53' W 002°27'5 9.6
2017-Nov-14 12:31N 43°50' W 002°33'5 9.6
2017-Nov-14 12:00N 43°47' W 002°38'5 9.5
2017-Nov-14 11:30N 43°45' W 002°44'5 9.5
2017-Nov-14 11:00N 43°42' W 002°49'5 9.5
2017-Nov-14 10:26N 43°39' W 002°56'4 9.3
2017-Nov-14 09:58N 43°37' W 003°01'5 9.4
2017-Nov-14 09:29N 43°35' W 003°06'5 9.5
2017-Nov-14 08:59N 43°32' W 003°12'4 9.4
2017-Nov-14 08:31N 43°30' W 003°17'5 9.4
2017-Nov-14 08:01N 43°27' W 003°23'4 0.9
2017-Nov-14 03:37N 43°27' W 003°28'1 5.8
2017-Nov-14 03:30N 43°26' W 003°27'3 6.2
2017-Nov-14 02:59N 43°29' W 003°27'5 9.3
2017-Nov-14 02:30N 43°31' W 003°33'4 9.0
2017-Nov-14 02:01N 43°32' W 003°39'  
2017-Nov-10 14:38N 43°27' W 003°28'0 0.1
2017-Nov-10 14:25N 43°27' W 003°28'0 0.0
2017-Nov-10 13:57N 43°27' W 003°28'0 0.0
2017-Nov-10 13:27N 43°27' W 003°28'0 0.0
2017-Nov-10 12:59N 43°27' W 003°28'0 0.1
2017-Nov-10 11:01N 43°26' W 003°28'0 8.6
2017-Nov-10 11:00N 43°26' W 003°28'5 9.5
2017-Nov-10 10:30N 43°27' W 003°21'510.2
2017-Nov-10 10:00N 43°29' W 003°15'510.1
2017-Nov-10 09:30N 43°31' W 003°08'510.2
2017-Nov-10 09:00N 43°32' W 003°01'510.5
2017-Nov-10 08:30N 43°34' W 002°54'510.3
2017-Nov-10 08:00N 43°35' W 002°48'510.3
2017-Nov-10 07:30N 43°37' W 002°41'510.3
2017-Nov-10 07:00N 43°38' W 002°34'510.3
2017-Nov-10 06:30N 43°39' W 002°27'510.5
2017-Nov-10 06:00N 43°41' W 002°20'510.5
2017-Nov-10 05:30N 43°42' W 002°13'510.3
2017-Nov-10 05:00N 43°43' W 002°06'510.5
2017-Nov-10 04:30N 43°44' W 001°59'15 4.6
2017-Nov-10 01:12N 43°46' W 001°38'1 1.0
2017-Nov-10 00:23N 43°45' W 001°38'2 5.1
2017-Nov-10 00:00N 43°45' W 001°41'0 0.4
2017-Nov-09 22:58N 43°45' W 001°41'0 0.5
2017-Nov-09 22:30N 43°45' W 001°41'2 3.7
2017-Nov-09 22:00N 43°46' W 001°40'1 0.9
2017-Nov-09 20:46N 43°45' W 001°40'2 4.2
2017-Nov-09 20:24N 43°45' W 001°39'0 0.3
2017-Nov-09 20:00N 43°44' W 001°39'0 0.3
2017-Nov-09 19:30N 43°44' W 001°39'0 0.7
2017-Nov-09 18:54N 43°44' W 001°38'1 1.3
2017-Nov-09 18:30N 43°44' W 001°38'5 9.1
2017-Nov-09 18:00N 43°40' W 001°42'5 9.1
2017-Nov-09 17:30N 43°36' W 001°45'5 9.0
2017-Nov-09 17:00N 43°32' W 001°48'5 9.1
2017-Nov-09 16:29N 43°28' W 001°51'4 9.1
2017-Nov-09 16:00N 43°24' W 001°54'5 0.1
2017-Nov-07 20:52N 43°19' W 001°55'5 8.2
2017-Nov-07 20:17N 43°24' W 001°54'2 8.6
2017-Nov-07 20:00N 43°26' W 001°52'2 4.4
2017-Nov-07 19:29N 43°28' W 001°50'0 0.6
2017-Nov-07 18:59N 43°28' W 001°50'2 4.4
2017-Nov-07 18:30N 43°26' W 001°51'5 9.3
2017-Nov-07 18:00N 43°22' W 001°54'2 0.3
2017-Nov-07 12:09N 43°20' W 001°56'  
Track history (hours):
 
Tides and Currents Weather Stations Pressure Air Temp Water Temp Dewpoint Dewpoint Depression Visibility Wind Speed Wind Dir Waves Ship Positions

Ermita Pilar

Last reported at 2017-Nov-17 11:44 UTC. Time now 2017-Nov-21 15:29 UTC.
Position N 43°19' W 001°56'.

Length 30 m.

Type: Fishing. MMSI: 224028250.

Date/timePositionNaut miles runAvg speedWind from/ knotsBaromVisibWave heightAir tempDewpointWater temp
2017-Nov-17 11:44N 43°19' W 001°56'1 0.5
2017-Nov-17 10:14N 43°20' W 001°56'910.7
2017-Nov-17 09:25N 43°28' W 001°52'410.7
2017-Nov-17 09:00N 43°33' W 001°50'510.6
2017-Nov-17 08:30N 43°38' W 001°48'510.6
2017-Nov-17 08:00N 43°43' W 001°45'510.8
2017-Nov-17 07:30N 43°48' W 001°43'510.6
2017-Nov-17 07:00N 43°53' W 001°40'510.4
2017-Nov-17 06:30N 43°57' W 001°37'510.6
2017-Nov-17 06:00N 44°02' W 001°34'611.1
2017-Nov-17 05:30N 44°07' W 001°31'611.1
2017-Nov-17 05:00N 44°13' W 001°28'1 2.3
2017-Nov-17 04:30N 44°14' W 001°28'0 0.2
2017-Nov-17 04:00N 44°14' W 001°28'2 3.1
2017-Nov-17 03:30N 44°12' W 001°28'510.3
2017-Nov-17 03:00N 44°08' W 001°31'611.2
2017-Nov-17 02:30N 44°02' W 001°33'1 1.4
2017-Nov-17 02:00N 44°02' W 001°33'1 1.8
2017-Nov-17 01:30N 44°01' W 001°33'0 0.3
2017-Nov-17 01:00N 44°01' W 001°33'0 1.0
2017-Nov-17 00:30N 44°00' W 001°33'0 0.2
2017-Nov-17 00:00N 44°00' W 001°33'0 0.3
2017-Nov-16 23:30N 44°00' W 001°33'2 3.5
2017-Nov-16 23:00N 44°01' W 001°36'1 2.0
2017-Nov-16 22:30N 43°60' W 001°36'0 0.1
2017-Nov-16 21:50N 43°60' W 001°36'1 1.0
2017-Nov-16 20:30N 44°01' W 001°37'1 1.1
2017-Nov-16 19:50N 44°00' W 001°37'0 0.3
2017-Nov-16 19:30N 43°60' W 001°37'0 0.6
2017-Nov-16 18:58N 43°60' W 001°37'3 7.2
2017-Nov-16 18:30N 44°03' W 001°34'2 3.1
2017-Nov-16 17:57N 44°04' W 001°34'3 6.5
2017-Nov-16 17:30N 44°01' W 001°33'5 9.7
2017-Nov-16 17:00N 43°57' W 001°35'5 9.7
2017-Nov-16 16:30N 43°52' W 001°37'5 9.9
2017-Nov-16 16:00N 43°48' W 001°40'5 9.8
2017-Nov-16 15:30N 43°43' W 001°43'5 9.9
2017-Nov-16 15:00N 43°39' W 001°46'5 9.6
2017-Nov-16 14:30N 43°34' W 001°48'5 9.8
2017-Nov-16 14:00N 43°30' W 001°51'5 9.6
2017-Nov-16 13:30N 43°25' W 001°53'5 9.4
2017-Nov-16 13:00N 43°21' W 001°55'1 0.2
2017-Nov-16 08:50N 43°20' W 001°56'410.3
2017-Nov-16 08:25N 43°24' W 001°55'510.4
2017-Nov-16 07:57N 43°29' W 001°54'510.5
2017-Nov-16 07:30N 43°34' W 001°52'510.4
2017-Nov-16 07:00N 43°39' W 001°50'510.4
2017-Nov-16 06:30N 43°43' W 001°47'510.5
2017-Nov-16 06:00N 43°48' W 001°45'510.3
2017-Nov-16 05:30N 43°53' W 001°42'510.2
2017-Nov-16 05:00N 43°58' W 001°40'510.0
2017-Nov-16 04:30N 44°03' W 001°37'4 8.1
2017-Nov-16 04:00N 44°06' W 001°35'2 3.9
2017-Nov-16 03:30N 44°08' W 001°34'0 0.1
2017-Nov-16 03:00N 44°08' W 001°34'0 0.2
2017-Nov-16 02:30N 44°08' W 001°33'2 4.6
2017-Nov-16 02:00N 44°06' W 001°34'1 1.0
2017-Nov-16 01:08N 44°06' W 001°33'0 0.2
2017-Nov-16 01:00N 44°06' W 001°33'0 0.3
2017-Nov-16 00:30N 44°06' W 001°33'0 0.1
2017-Nov-16 00:00N 44°06' W 001°33'0 0.1
2017-Nov-15 23:30N 44°06' W 001°33'1 0.6
2017-Nov-15 21:54N 44°06' W 001°31'2 6.2
2017-Nov-15 21:30N 44°08' W 001°31'0 0.2
2017-Nov-15 20:26N 44°09' W 001°32'0 0.3
2017-Nov-15 20:00N 44°09' W 001°32'0 0.3
2017-Nov-15 19:30N 44°09' W 001°32'4 3.6
2017-Nov-15 18:29N 44°05' W 001°29'1 3.0
2017-Nov-15 18:00N 44°05' W 001°31'0 0.2
2017-Nov-15 17:30N 44°05' W 001°30'1 2.5
2017-Nov-15 16:59N 44°04' W 001°31'5 9.5
2017-Nov-15 16:29N 43°60' W 001°34'5 9.8
2017-Nov-15 15:59N 43°55' W 001°37'510.0
2017-Nov-15 15:30N 43°51' W 001°40'510.2
2017-Nov-15 15:00N 43°46' W 001°43'510.1
2017-Nov-15 14:30N 43°41' W 001°45'5 9.7
2017-Nov-15 14:00N 43°37' W 001°47'5 9.8
2017-Nov-15 13:30N 43°32' W 001°50'6 9.8
2017-Nov-15 12:55N 43°27' W 001°53'4 9.7
2017-Nov-15 12:30N 43°23' W 001°55'3 1.2
2017-Nov-15 10:08N 43°20' W 001°56'1 9.9
2017-Nov-15 09:59N 43°22' W 001°56'910.2
2017-Nov-15 09:09N 43°30' W 001°53'110.1
2017-Nov-15 09:00N 43°31' W 001°52'510.1
2017-Nov-15 08:30N 43°36' W 001°50'510.2
2017-Nov-15 08:00N 43°41' W 001°48'510.0
2017-Nov-15 07:28N 43°46' W 001°46'10 9.9
2017-Nov-15 06:27N 43°56' W 001°42'22 6.0
2017-Nov-15 02:50N 44°16' W 001°31'0 0.2
2017-Nov-15 02:20N 44°16' W 001°31'0 0.2
2017-Nov-15 01:57N 44°16' W 001°31'0 0.1
2017-Nov-15 00:41N 44°16' W 001°31'0 0.3
2017-Nov-15 00:31N 44°16' W 001°31'1 1.1
2017-Nov-14 23:45N 44°17' W 001°31'0 0.1
2017-Nov-14 23:29N 44°17' W 001°31'1 1.2
2017-Nov-14 22:58N 44°17' W 001°30'31 3.8
2017-Nov-14 14:43N 44°02' W 002°08'2 9.8
2017-Nov-14 14:29N 44°01' W 002°11'5 9.7
2017-Nov-14 14:00N 43°58' W 002°16'5 9.6
2017-Nov-14 13:31N 43°56' W 002°22'5 9.6
2017-Nov-14 13:00N 43°53' W 002°27'5 9.6
2017-Nov-14 12:31N 43°50' W 002°33'5 9.6
2017-Nov-14 12:00N 43°47' W 002°38'5 9.5
2017-Nov-14 11:30N 43°45' W 002°44'5 9.5
2017-Nov-14 11:00N 43°42' W 002°49'5 9.5
2017-Nov-14 10:26N 43°39' W 002°56'4 9.3
2017-Nov-14 09:58N 43°37' W 003°01'5 9.4
2017-Nov-14 09:29N 43°35' W 003°06'5 9.5
2017-Nov-14 08:59N 43°32' W 003°12'4 9.4
2017-Nov-14 08:31N 43°30' W 003°17'5 9.4
2017-Nov-14 08:01N 43°27' W 003°23'4 0.9
2017-Nov-14 03:37N 43°27' W 003°28'1 5.8
2017-Nov-14 03:30N 43°26' W 003°27'3 6.2
2017-Nov-14 02:59N 43°29' W 003°27'5 9.3
2017-Nov-14 02:30N 43°31' W 003°33'4 9.0
2017-Nov-14 02:01N 43°32' W 003°39'  
2017-Nov-10 14:38N 43°27' W 003°28'0 0.1
2017-Nov-10 14:25N 43°27' W 003°28'0 0.0
2017-Nov-10 13:57N 43°27' W 003°28'0 0.0
2017-Nov-10 13:27N 43°27' W 003°28'0 0.0
2017-Nov-10 12:59N 43°27' W 003°28'0 0.1
2017-Nov-10 11:01N 43°26' W 003°28'0 8.6
2017-Nov-10 11:00N 43°26' W 003°28'5 9.5
2017-Nov-10 10:30N 43°27' W 003°21'510.2
2017-Nov-10 10:00N 43°29' W 003°15'510.1
2017-Nov-10 09:30N 43°31' W 003°08'510.2
2017-Nov-10 09:00N 43°32' W 003°01'510.5
2017-Nov-10 08:30N 43°34' W 002°54'510.3
2017-Nov-10 08:00N 43°35' W 002°48'510.3
2017-Nov-10 07:30N 43°37' W 002°41'510.3
2017-Nov-10 07:00N 43°38' W 002°34'510.3
2017-Nov-10 06:30N 43°39' W 002°27'510.5
2017-Nov-10 06:00N 43°41' W 002°20'510.5
2017-Nov-10 05:30N 43°42' W 002°13'510.3
2017-Nov-10 05:00N 43°43' W 002°06'510.5
2017-Nov-10 04:30N 43°44' W 001°59'15 4.6
2017-Nov-10 01:12N 43°46' W 001°38'1 1.0
2017-Nov-10 00:23N 43°45' W 001°38'2 5.1
2017-Nov-10 00:00N 43°45' W 001°41'0 0.4
2017-Nov-09 22:58N 43°45' W 001°41'0 0.5
2017-Nov-09 22:30N 43°45' W 001°41'2 3.7
2017-Nov-09 22:00N 43°46' W 001°40'1 0.9
2017-Nov-09 20:46N 43°45' W 001°40'2 4.2
2017-Nov-09 20:24N 43°45' W 001°39'0 0.3
2017-Nov-09 20:00N 43°44' W 001°39'0 0.3
2017-Nov-09 19:30N 43°44' W 001°39'0 0.7
2017-Nov-09 18:54N 43°44' W 001°38'1 1.3
2017-Nov-09 18:30N 43°44' W 001°38'5 9.1
2017-Nov-09 18:00N 43°40' W 001°42'5 9.1
2017-Nov-09 17:30N 43°36' W 001°45'5 9.0
2017-Nov-09 17:00N 43°32' W 001°48'5 9.1
2017-Nov-09 16:29N 43°28' W 001°51'4 9.1
2017-Nov-09 16:00N 43°24' W 001°54'5 0.1
2017-Nov-07 20:52N 43°19' W 001°55'5 8.2
2017-Nov-07 20:17N 43°24' W 001°54'2 8.6
2017-Nov-07 20:00N 43°26' W 001°52'2 4.4
2017-Nov-07 19:29N 43°28' W 001°50'0 0.6
2017-Nov-07 18:59N 43°28' W 001°50'2 4.4
2017-Nov-07 18:30N 43°26' W 001°51'5 9.3
2017-Nov-07 18:00N 43°22' W 001°54'2 0.3
2017-Nov-07 12:09N 43°20' W 001°56'  

Dump ship's entire track history